Time;durP1;ratioP1;P1;durP2;ratioP2;P2;SDS_P1;SDS_P2;PMS_P1;PMS_P2;Temp;Humidity;BMP_temperature;BMP_pressure;BME280_temperature;BME280_humidity;BME280_pressure;Samples;Min_cycle;Max_cycle;Signal;HPM_P1;HPM_P2
2021/01/21 00:02:19;;;;;;;2.60;1.27;;;10.60;99.90;;;;;;4994256;28;20257;-76
2021/01/21 00:04:45;;;;;;;3.47;1.40;;;10.60;99.90;;;;;;4994180;28;20212;-75
2021/01/21 00:07:10;;;;;;;4.70;1.30;;;10.70;99.90;;;;;;4994021;28;20468;-76
2021/01/21 00:09:36;;;;;;;4.37;1.40;;;10.60;99.90;;;;;;4977824;28;20551;-75
2021/01/21 00:12:02;;;;;;;3.50;1.57;;;10.60;99.90;;;;;;4977789;28;20662;-76
2021/01/21 00:14:27;;;;;;;4.50;1.20;;;10.50;99.90;;;;;;4994194;28;20671;-77
2021/01/21 00:16:53;;;;;;;2.50;1.40;;;10.50;99.90;;;;;;4993873;28;20252;-77
2021/01/21 00:19:18;;;;;;;5.03;1.40;;;10.40;99.90;;;;;;4994046;28;20184;-77
2021/01/21 00:21:44;;;;;;;6.57;1.50;;;10.50;99.90;;;;;;4993989;28;20188;-75
2021/01/21 00:24:09;;;;;;;4.57;1.50;;;10.60;99.90;;;;;;4994975;28;20212;-75
2021/01/21 00:26:35;;;;;;;2.20;1.37;;;10.60;99.90;;;;;;4993431;28;20601;-75
2021/01/21 00:29:01;;;;;;;4.27;1.33;;;10.60;99.90;;;;;;4993956;28;20218;-75
2021/01/21 00:31:27;;;;;;;4.60;1.30;;;10.60;99.90;;;;;;4993619;28;20186;-75
2021/01/21 00:33:52;;;;;;;4.70;1.50;;;10.60;99.90;;;;;;4994955;28;20184;-75
2021/01/21 00:36:18;;;;;;;7.40;1.43;;;10.60;99.90;;;;;;4993504;28;20208;-75
2021/01/21 00:38:43;;;;;;;6.10;1.20;;;10.60;99.90;;;;;;4994788;28;20250;-75
2021/01/21 00:41:09;;;;;;;3.40;1.33;;;10.70;99.90;;;;;;4993634;28;20211;-75
2021/01/21 00:43:35;;;;;;;3.70;1.70;;;10.70;99.90;;;;;;4993532;28;20214;-75
2021/01/21 00:46:00;;;;;;;3.90;1.20;;;10.70;99.90;;;;;;4993437;28;20193;-77
2021/01/21 00:48:27;;;;;;;3.27;1.07;;;10.70;99.90;;;;;;4993358;28;20240;-75
2021/01/21 00:50:53;;;;;;;2.57;1.00;;;10.70;99.90;;;;;;4977330;28;20188;-75
2021/01/21 00:53:18;;;;;;;3.60;1.10;;;10.70;99.90;;;;;;4977048;28;20187;-75
2021/01/21 00:55:44;;;;;;;2.93;1.20;;;10.80;99.90;;;;;;4977091;28;20204;-75
2021/01/21 00:58:09;;;;;;;2.40;1.27;;;10.80;99.90;;;;;;4976949;28;20551;-75
2021/01/21 01:00:35;;;;;;;2.37;1.20;;;10.80;99.90;;;;;;4993285;28;20186;-75
2021/01/21 01:03:03;;;;;;;2.87;1.13;;;10.80;99.90;;;;;;4993608;28;20203;-75
2021/01/21 01:05:28;;;;;;;2.30;1.20;;;10.90;99.90;;;;;;4994445;28;20193;-75
2021/01/21 01:07:54;;;;;;;4.37;1.50;;;11.00;99.90;;;;;;4992785;28;20192;-76
2021/01/21 01:10:19;;;;;;;3.17;1.20;;;11.00;99.90;;;;;;4993156;28;20258;-75
2021/01/21 01:12:45;;;;;;;3.00;1.10;;;11.00;99.90;;;;;;4993102;28;20646;-76
2021/01/21 01:15:11;;;;;;;2.97;1.20;;;11.00;99.90;;;;;;4976905;28;20188;-75
2021/01/21 01:17:36;;;;;;;2.73;1.13;;;11.00;99.90;;;;;;4976504;28;20705;-75
2021/01/21 01:20:03;;;;;;;2.10;0.93;;;11.10;99.90;;;;;;4993009;28;20178;-75
2021/01/21 01:22:28;;;;;;;4.60;1.33;;;11.10;99.90;;;;;;4992847;28;20533;-75
2021/01/21 01:24:54;;;;;;;4.33;1.30;;;11.00;99.90;;;;;;4992722;28;20263;-76
2021/01/21 01:27:20;;;;;;;2.57;1.10;;;11.10;99.90;;;;;;4975997;28;20219;-75
2021/01/21 01:29:45;;;;;;;3.03;1.17;;;11.10;99.90;;;;;;4993673;28;20219;-75
2021/01/21 01:32:11;;;;;;;2.77;1.13;;;11.10;99.90;;;;;;4993734;28;20543;-75
2021/01/21 01:34:37;;;;;;;2.97;1.17;;;11.20;99.90;;;;;;4992422;28;20269;-75
2021/01/21 01:37:03;;;;;;;2.00;1.10;;;11.10;99.90;;;;;;4975879;28;20579;-75
2021/01/21 01:39:29;;;;;;;3.57;1.00;;;11.10;99.90;;;;;;4992394;28;20199;-75
2021/01/21 01:41:54;;;;;;;2.27;1.00;;;11.10;99.90;;;;;;4992561;28;20183;-75
2021/01/21 01:44:20;;;;;;;2.00;0.93;;;11.00;99.90;;;;;;4992949;28;20556;-77
2021/01/21 01:46:45;;;;;;;3.20;1.00;;;11.10;99.90;;;;;;4992325;28;20222;-75
2021/01/21 01:49:11;;;;;;;2.13;1.10;;;11.10;99.90;;;;;;4992388;28;20242;-76
2021/01/21 01:51:38;;;;;;;5.03;1.20;;;11.20;99.90;;;;;;4975849;28;20268;-75
2021/01/21 01:54:04;;;;;;;5.87;1.00;;;11.20;99.90;;;;;;4992333;28;20183;-75
2021/01/21 01:56:30;;;;;;;3.97;1.10;;;11.20;99.90;;;;;;4991937;28;20201;-75
2021/01/21 01:58:57;;;;;;;3.47;1.10;;;11.30;99.90;;;;;;4992288;28;20242;-75
2021/01/21 02:01:22;;;;;;;2.53;1.00;;;11.30;99.90;;;;;;4992059;28;20266;-77
2021/01/21 02:03:49;;;;;;;2.17;1.10;;;11.20;99.90;;;;;;4992081;28;20294;-75
2021/01/21 02:06:14;;;;;;;2.80;1.03;;;11.20;99.90;;;;;;4975558;28;20688;-76
2021/01/21 02:08:40;;;;;;;3.80;1.27;;;11.10;99.90;;;;;;4992093;28;20266;-75
2021/01/21 02:11:25;;;;;;;3.97;1.13;;;11.10;99.90;;;;;;4992022;28;20208;-75
2021/01/21 02:13:52;;;;;;;2.23;1.00;;;11.10;99.90;;;;;;4993432;28;20226;-76
2021/01/21 02:16:28;;;;;;;1.47;0.90;;;11.10;99.90;;;;;;4991552;28;20225;-76
2021/01/21 02:19:29;;;;;;;2.27;1.00;;;11.30;99.90;;;;;;4991856;28;20179;-75
2021/01/21 02:22:16;;;;;;;1.50;0.90;;;11.10;99.90;;;;;;4992092;28;20183;-76
2021/01/21 02:24:59;;;;;;;2.30;1.00;;;11.10;99.90;;;;;;4992778;28;20202;-76
2021/01/21 02:27:25;;;;;;;3.33;0.90;;;11.10;99.90;;;;;;4992634;28;20215;-76
2021/01/21 02:29:51;;;;;;;4.20;0.80;;;11.10;99.90;;;;;;4991735;28;20190;-75
2021/01/21 02:32:23;;;;;;;2.50;0.90;;;11.00;99.90;;;;;;4992795;28;20693;-76
2021/01/21 02:34:49;;;;;;;1.90;0.80;;;11.00;99.90;;;;;;5007878;28;20191;-75
2021/01/21 02:37:25;;;;;;;2.00;1.07;;;11.10;99.90;;;;;;4991410;28;20290;-76
2021/01/21 02:39:53;;;;;;;3.47;0.90;;;11.20;99.90;;;;;;4976167;28;20255;-75
2021/01/21 02:42:18;;;;;;;1.93;1.07;;;11.10;99.90;;;;;;4991686;28;20179;-75
2021/01/21 02:44:44;;;;;;;2.03;0.87;;;11.10;99.90;;;;;;4975243;28;20272;-75
2021/01/21 02:47:10;;;;;;;3.00;1.20;;;11.00;99.90;;;;;;4991230;28;20238;-77
2021/01/21 02:49:36;;;;;;;1.90;0.90;;;11.00;99.90;;;;;;4991601;28;20188;-75
2021/01/21 02:52:28;;;;;;;2.27;1.00;;;11.00;99.90;;;;;;4991546;28;20176;-75
2021/01/21 02:54:53;;;;;;;4.73;1.10;;;11.00;99.90;;;;;;4990521;28;20357;-77
2021/01/21 02:57:22;;;;;;;2.87;1.00;;;11.10;99.90;;;;;;4992373;28;20729;-75
2021/01/21 02:59:47;;;;;;;1.73;0.90;;;11.10;99.90;;;;;;4992414;28;20285;-75
2021/01/21 03:02:13;;;;;;;3.03;0.90;;;11.20;99.90;;;;;;4991319;28;20727;-75
2021/01/21 03:04:39;;;;;;;2.40;1.27;;;11.30;99.90;;;;;;4991276;28;20210;-75
2021/01/21 03:07:08;;;;;;;2.03;1.00;;;11.30;99.90;;;;;;5011040;23;20308;-77
2021/01/21 03:09:34;;;;;;;3.50;1.13;;;11.30;99.90;;;;;;4958115;28;20207;-78
2021/01/21 03:12:22;;;;;;;3.43;1.20;;;11.30;99.90;;;;;;4974310;28;20179;-77
2021/01/21 03:14:49;;;;;;;3.07;0.80;;;11.20;99.90;;;;;;4958248;28;20565;-78
2021/01/21 03:17:15;;;;;;;2.13;0.83;;;11.30;99.90;;;;;;4981096;28;20777;-78
2021/01/21 03:19:40;;;;;;;2.90;1.00;;;11.40;99.90;;;;;;4958025;28;20182;-78
2021/01/21 03:22:06;;;;;;;3.00;0.97;;;11.30;99.90;;;;;;4958613;28;20678;-77
2021/01/21 03:24:32;;;;;;;2.20;0.77;;;11.30;99.90;;;;;;4957124;28;20221;-78
2021/01/21 03:26:57;;;;;;;1.73;0.90;;;11.40;99.90;;;;;;4959617;28;20197;-78
2021/01/21 03:29:23;;;;;;;2.60;0.90;;;11.40;99.90;;;;;;4962350;28;20200;-78
2021/01/21 03:31:48;;;;;;;1.00;0.70;;;11.40;99.90;;;;;;4962879;28;20235;-78
2021/01/21 03:34:14;;;;;;;3.37;0.80;;;11.50;99.90;;;;;;4961635;28;20187;-79
2021/01/21 03:36:39;;;;;;;1.93;1.00;;;11.60;99.90;;;;;;4978080;28;20200;-78
2021/01/21 03:39:05;;;;;;;4.27;0.80;;;11.50;99.90;;;;;;4978418;28;20183;-79
2021/01/21 03:41:30;;;;;;;2.23;0.97;;;11.50;99.90;;;;;;4962124;28;20230;-77
2021/01/21 03:43:56;;;;;;;3.97;1.20;;;11.50;99.90;;;;;;4961906;28;20258;-78
2021/01/21 03:46:21;;;;;;;1.97;0.90;;;11.60;99.90;;;;;;4960897;28;20590;-78
2021/01/21 03:48:47;;;;;;;1.63;0.90;;;11.60;99.90;;;;;;4977353;28;20524;-79
2021/01/21 03:51:13;;;;;;;1.33;0.80;;;11.70;99.90;;;;;;4978777;28;20181;-78
2021/01/21 03:53:38;;;;;;;2.20;1.00;;;11.70;99.90;;;;;;4979298;28;20216;-78
2021/01/21 03:56:04;;;;;;;2.80;0.90;;;11.70;99.90;;;;;;4962621;28;20191;-78
2021/01/21 03:58:30;;;;;;;3.10;1.00;;;11.80;99.90;;;;;;4962092;28;20195;-78
2021/01/21 04:00:55;;;;;;;1.20;0.60;;;11.90;99.90;;;;;;4962289;28;20214;-77
2021/01/21 04:03:21;;;;;;;3.00;0.90;;;11.90;99.90;;;;;;4977657;28;20263;-78
2021/01/21 04:05:46;;;;;;;2.17;0.83;;;11.90;99.90;;;;;;4978017;28;20180;-78
2021/01/21 04:08:12;;;;;;;3.93;1.17;;;12.00;99.90;;;;;;4961456;28;20216;-77
2021/01/21 04:10:37;;;;;;;2.90;0.87;;;11.90;99.90;;;;;;4962239;28;20176;-77
2021/01/21 04:13:03;;;;;;;1.77;0.90;;;11.90;99.90;;;;;;4977942;28;20181;-78
2021/01/21 04:15:28;;;;;;;1.90;1.00;;;11.90;99.90;;;;;;4961159;28;20189;-78
2021/01/21 04:17:54;;;;;;;4.30;0.80;;;12.00;99.90;;;;;;4977712;28;20192;-77
2021/01/21 04:20:19;;;;;;;2.40;1.00;;;11.90;99.90;;;;;;4978310;28;20182;-77
2021/01/21 04:22:45;;;;;;;1.50;0.70;;;11.90;99.90;;;;;;4977814;28;20506;-78
2021/01/21 04:25:11;;;;;;;2.30;1.07;;;12.00;99.90;;;;;;4961579;28;20243;-78
2021/01/21 04:27:37;;;;;;;3.87;0.83;;;12.00;99.90;;;;;;4961368;28;20199;-78
2021/01/21 04:30:03;;;;;;;2.60;0.90;;;12.00;99.90;;;;;;4961316;28;20176;-78
2021/01/21 04:32:29;;;;;;;3.17;1.00;;;12.00;99.90;;;;;;4960781;28;20641;-78
2021/01/21 04:34:54;;;;;;;3.23;0.90;;;11.70;99.90;;;;;;4976355;28;20191;-79
2021/01/21 04:37:20;;;;;;;2.33;0.97;;;11.50;99.90;;;;;;4977194;28;20202;-78
2021/01/21 04:39:45;;;;;;;2.80;0.90;;;11.40;99.90;;;;;;4961102;28;20179;-79
2021/01/21 04:42:11;;;;;;;2.00;0.90;;;11.50;99.90;;;;;;4977241;28;20675;-77
2021/01/21 04:44:36;;;;;;;2.30;0.87;;;11.50;99.90;;;;;;4960832;28;20745;-78
2021/01/21 04:47:02;;;;;;;1.83;0.80;;;11.40;99.90;;;;;;4960840;28;20196;-78
2021/01/21 04:49:28;;;;;;;2.27;0.83;;;11.50;99.90;;;;;;4960974;28;20183;-78
2021/01/21 04:51:54;;;;;;;1.30;0.70;;;11.60;99.90;;;;;;4977038;28;20184;-77
2021/01/21 04:54:26;;;;;;;3.83;1.07;;;11.70;99.90;;;;;;4960959;28;20189;-79
2021/01/21 04:56:51;;;;;;;1.60;0.73;;;11.80;99.90;;;;;;4961021;28;20200;-78
2021/01/21 04:59:17;;;;;;;2.33;0.80;;;11.90;99.90;;;;;;4976835;28;20187;-78
2021/01/21 05:01:42;;;;;;;1.67;0.70;;;11.90;99.90;;;;;;4961152;28;20185;-78
2021/01/21 05:04:08;;;;;;;1.20;0.70;;;11.90;99.90;;;;;;4960908;28;20228;-78
2021/01/21 05:06:34;;;;;;;2.40;0.90;;;12.00;99.90;;;;;;4960861;28;20243;-78
2021/01/21 05:08:59;;;;;;;2.33;0.70;;;12.00;99.90;;;;;;4961513;28;20658;-78
2021/01/21 05:11:25;;;;;;;1.30;0.70;;;12.00;99.90;;;;;;4977058;28;20185;-78
2021/01/21 05:13:50;;;;;;;2.77;0.80;;;12.10;99.90;;;;;;4977395;28;20212;-77
2021/01/21 05:16:16;;;;;;;2.60;0.97;;;12.20;99.90;;;;;;4960035;28;20238;-78
2021/01/21 05:18:41;;;;;;;2.10;0.70;;;12.10;99.90;;;;;;4960320;28;20188;-78
2021/01/21 05:21:07;;;;;;;1.40;0.70;;;12.10;99.90;;;;;;4959838;28;20192;-77
2021/01/21 05:23:33;;;;;;;0.63;0.60;;;12.10;99.90;;;;;;4976404;28;20199;-78
2021/01/21 05:26:02;;;;;;;2.33;0.70;;;12.10;99.90;;;;;;4959654;28;20187;-78
2021/01/21 05:28:27;;;;;;;1.30;0.60;;;12.00;99.90;;;;;;4960086;28;20626;-78
2021/01/21 05:30:53;;;;;;;1.60;0.60;;;11.90;99.90;;;;;;4976147;28;20188;-77
2021/01/21 05:33:20;;;;;;;2.37;0.70;;;11.90;99.90;;;;;;4960310;28;20702;-79
2021/01/21 05:35:47;;;;;;;0.97;0.80;;;11.90;99.90;;;;;;4960042;28;20199;-78
2021/01/21 05:38:12;;;;;;;1.93;0.70;;;11.80;99.90;;;;;;4960528;28;20204;-79
2021/01/21 05:40:38;;;;;;;2.27;0.73;;;11.80;99.90;;;;;;4976153;28;20188;-78
2021/01/21 05:43:03;;;;;;;1.73;0.70;;;11.70;99.90;;;;;;4975314;28;20196;-77
2021/01/21 05:45:29;;;;;;;0.67;0.60;;;11.80;99.90;;;;;;4959951;28;20179;-79
2021/01/21 05:48:01;;;;;;;2.73;0.73;;;11.80;99.90;;;;;;4958604;28;20232;-78
2021/01/21 05:50:27;;;;;;;0.50;0.50;;;11.80;99.90;;;;;;4958644;28;20624;-78
2021/01/21 05:52:57;;;;;;;1.80;0.83;;;11.90;99.90;;;;;;4959542;28;20647;-78
2021/01/21 05:55:26;;;;;;;2.10;0.50;;;12.00;99.90;;;;;;4959483;28;20595;-77
2021/01/21 05:57:54;;;;;;;1.10;0.50;;;12.00;99.90;;;;;;4959467;28;20229;-79
2021/01/21 06:00:21;;;;;;;0.80;0.53;;;11.90;99.90;;;;;;4966627;28;20192;-78
2021/01/21 06:02:53;;;;;;;3.27;0.57;;;11.70;99.90;;;;;;4967358;28;20539;-78
2021/01/21 06:05:22;;;;;;;2.07;0.60;;;10.90;99.90;;;;;;4961631;28;20177;-78
2021/01/21 06:07:48;;;;;;;1.73;0.60;;;8.60;99.90;;;;;;4956438;28;20219;-80
2021/01/21 06:10:14;;;;;;;4.57;0.73;;;7.40;99.90;;;;;;4956693;28;20195;-79
2021/01/21 06:12:45;;;;;;;0.70;0.50;;;7.00;99.90;;;;;;4956855;28;20185;-80
2021/01/21 06:15:13;;;;;;;1.27;0.50;;;6.90;99.90;;;;;;4957441;28;20228;-79
2021/01/21 06:17:39;;;;;;;1.90;0.70;;;6.80;99.90;;;;;;4958957;28;20250;-79
2021/01/21 06:20:05;;;;;;;2.50;0.83;;;6.80;99.90;;;;;;4969802;28;20576;-81
2021/01/21 06:22:31;;;;;;;2.50;0.73;;;6.70;99.90;;;;;;4960885;28;20192;-80
2021/01/21 06:25:02;;;;;;;1.43;0.80;;;6.70;99.90;;;;;;4956892;28;20209;-79
2021/01/21 06:27:28;;;;;;;3.23;0.70;;;6.70;99.90;;;;;;4957661;28;20205;-77
2021/01/21 06:29:55;;;;;;;2.70;0.50;;;6.70;99.90;;;;;;4956995;28;20601;-78
2021/01/21 06:32:26;;;;;;;3.30;0.60;;;6.60;99.90;;;;;;4957132;28;20649;-78
2021/01/21 06:34:52;;;;;;;2.47;0.63;;;6.60;99.90;;;;;;4957819;28;20231;-78
2021/01/21 06:37:21;;;;;;;1.33;0.50;;;6.60;99.90;;;;;;4956855;28;20206;-78
2021/01/21 06:39:56;;;;;;;1.43;0.53;;;6.60;99.90;;;;;;4957078;28;20180;-77
2021/01/21 06:42:29;;;;;;;0.60;0.50;;;6.50;99.90;;;;;;4973236;28;20528;-78
2021/01/21 06:44:55;;;;;;;0.93;0.50;;;6.50;99.90;;;;;;4957646;28;20207;-80
2021/01/21 06:47:21;;;;;;;2.03;0.40;;;6.50;99.90;;;;;;4959416;28;20684;-79
2021/01/21 06:49:47;;;;;;;1.20;0.40;;;6.50;99.90;;;;;;4965363;28;20184;-80
2021/01/21 06:52:12;;;;;;;0.77;0.60;;;6.40;99.90;;;;;;4956326;28;20177;-80
2021/01/21 06:54:38;;;;;;;2.20;0.53;;;6.50;99.90;;;;;;4964739;28;20181;-81
2021/01/21 06:57:30;;;;;;;1.97;0.70;;;6.40;99.90;;;;;;4966846;28;20244;-80
2021/01/21 06:59:55;;;;;;;0.97;0.57;;;6.50;99.90;;;;;;4972213;28;20207;-80
2021/01/21 07:02:44;;;;;;;1.63;0.67;;;6.40;99.90;;;;;;4960066;28;20180;-80
2021/01/21 07:05:20;;;;;;;2.53;0.53;;;6.50;99.90;;;;;;4973690;28;20604;-80
2021/01/21 07:08:01;;;;;;;3.37;0.60;;;6.40;99.90;;;;;;4964555;28;20224;-80
2021/01/21 07:10:33;;;;;;;1.30;0.60;;;6.40;99.90;;;;;;4979557;28;20201;-80
2021/01/21 07:13:19;;;;;;;2.63;0.73;;;6.40;99.90;;;;;;4994465;28;20180;-80
2021/01/21 07:16:00;;;;;;;1.97;0.80;;;6.40;99.90;;;;;;4987793;28;20189;-77
2021/01/21 07:18:34;;;;;;;3.40;0.70;;;6.50;99.90;;;;;;4971044;28;21538;-78
2021/01/21 07:20:59;;;;;;;1.97;0.70;;;6.50;99.90;;;;;;4958952;28;20548;-77
2021/01/21 07:23:48;;;;;;;3.27;0.90;;;6.50;99.90;;;;;;4969554;28;20266;-76
2021/01/21 07:26:35;;;;;;;2.27;0.70;;;6.50;99.90;;;;;;4979267;28;20179;-77
2021/01/21 07:29:19;;;;;;;1.63;0.73;;;6.50;99.90;;;;;;4996168;28;20541;-78
2021/01/21 07:31:56;;;;;;;3.57;0.87;;;6.60;99.90;;;;;;4979240;28;20176;-77
2021/01/21 07:34:26;;;;;;;3.30;0.80;;;6.60;99.90;;;;;;4995511;28;20184;-79
2021/01/21 07:37:19;;;;;;;3.93;0.93;;;6.60;99.90;;;;;;4978084;28;20196;-80
2021/01/21 07:39:50;;;;;;;3.90;1.00;;;6.50;99.90;;;;;;4994816;28;20734;-80
2021/01/21 07:42:17;;;;;;;3.43;0.80;;;6.60;99.90;;;;;;4997478;28;20663;-78
2021/01/21 07:44:58;;;;;;;3.93;0.90;;;6.70;99.90;;;;;;4982934;28;20211;-79
2021/01/21 07:47:27;;;;;;;3.73;1.23;;;6.70;99.90;;;;;;4994857;28;20207;-80
2021/01/21 07:50:19;;;;;;;3.70;0.93;;;6.70;99.90;;;;;;4997352;28;20560;-78
2021/01/21 07:52:48;;;;;;;5.40;1.00;;;6.70;99.90;;;;;;4994599;28;20227;-79
2021/01/21 07:55:13;;;;;;;5.53;1.37;;;6.70;99.90;;;;;;4979003;28;20189;-79
2021/01/21 07:57:39;;;;;;;3.20;1.10;;;6.80;99.90;;;;;;4981590;28;20254;-79
2021/01/21 08:00:17;;;;;;;5.50;1.50;;;6.80;99.90;;;;;;4980361;28;20636;-81
2021/01/21 08:02:50;;;;;;;1.90;1.00;;;6.80;99.90;;;;;;5014869;28;20234;-80
2021/01/21 08:05:37;;;;;;;6.50;1.30;;;6.80;99.90;;;;;;4970531;28;20212;-81
2021/01/21 08:08:03;;;;;;;4.93;1.20;;;6.80;99.90;;;;;;4974333;28;20771;-80
2021/01/21 08:10:31;;;;;;;2.87;1.07;;;6.80;99.90;;;;;;4962609;28;20200;-80
2021/01/21 08:13:05;;;;;;;3.90;1.03;;;6.80;99.90;;;;;;4956158;28;20200;-80
2021/01/21 08:15:32;;;;;;;3.90;1.20;;;6.80;99.90;;;;;;4949519;28;20315;-79
2021/01/21 08:17:58;;;;;;;3.03;1.30;;;6.80;99.90;;;;;;4967078;28;20669;-81
2021/01/21 08:20:24;;;;;;;7.27;1.80;;;6.70;99.90;;;;;;4944863;28;20255;-80
2021/01/21 08:23:00;;;;;;;8.23;1.27;;;6.60;99.90;;;;;;4941541;29;20178;-80
2021/01/21 08:25:40;;;;;;;3.40;1.00;;;6.60;99.90;;;;;;4947727;29;20264;-82
2021/01/21 08:28:06;;;;;;;6.30;1.40;;;6.60;99.90;;;;;;4944583;28;20204;-79
2021/01/21 08:30:31;;;;;;;5.80;1.20;;;6.60;99.90;;;;;;4973557;28;20649;-79
2021/01/21 08:32:58;;;;;;;5.60;1.60;;;6.50;99.90;;;;;;4938856;29;20184;-78
2021/01/21 08:35:26;;;;;;;3.83;1.10;;;6.60;99.90;;;;;;4963191;28;20223;-79
2021/01/21 08:37:53;;;;;;;3.73;1.07;;;6.60;99.90;;;;;;4963176;28;20190;-79
2021/01/21 08:40:19;;;;;;;8.93;1.57;;;6.60;99.90;;;;;;4957292;28;20230;-79
2021/01/21 08:42:49;;;;;;;4.07;1.03;;;6.50;99.90;;;;;;4957834;28;20172;-78
2021/01/21 08:45:15;;;;;;;5.53;1.60;;;6.50;99.90;;;;;;4942538;28;20691;-76
2021/01/21 08:47:44;;;;;;;5.33;1.50;;;6.50;99.90;;;;;;4964524;28;20297;-76
2021/01/21 08:50:11;;;;;;;4.93;1.27;;;6.60;99.90;;;;;;4974013;28;20177;-76
2021/01/21 08:52:53;;;;;;;3.70;1.40;;;6.60;99.90;;;;;;4958090;28;20260;-75
2021/01/21 08:55:19;;;;;;;4.57;1.37;;;6.60;99.90;;;;;;4980269;28;20666;-79
2021/01/21 08:58:03;;;;;;;7.57;1.70;;;6.70;99.90;;;;;;4955280;28;20198;-79
2021/01/21 09:00:29;;;;;;;7.30;1.70;;;6.80;99.90;;;;;;4938265;28;20235;-79
2021/01/21 09:02:55;;;;;;;6.23;1.43;;;7.00;99.90;;;;;;4942771;28;20181;-80
2021/01/21 09:05:21;;;;;;;4.07;1.43;;;7.10;99.90;;;;;;4952716;29;20185;-78
2021/01/21 09:07:51;;;;;;;5.37;0.90;;;7.30;99.90;;;;;;4974238;28;20216;-78
2021/01/21 09:10:17;;;;;;;6.10;1.20;;;7.40;99.90;;;;;;4937459;29;20230;-77
2021/01/21 09:12:42;;;;;;;4.50;1.57;;;7.40;99.90;;;;;;4972472;28;20173;-78
2021/01/21 09:15:09;;;;;;;6.13;1.40;;;7.50;99.90;;;;;;4942778;28;20191;-80
2021/01/21 09:17:37;;;;;;;3.87;1.30;;;7.50;99.90;;;;;;4938226;29;20285;-78
2021/01/21 09:20:17;;;;;;;8.27;1.40;;;7.40;99.90;;;;;;4939620;29;20177;-79
2021/01/21 09:22:43;;;;;;;4.63;1.27;;;7.40;99.90;;;;;;4944215;28;20231;-79
2021/01/21 09:25:09;;;;;;;6.90;1.33;;;7.50;99.90;;;;;;4949727;28;20299;-78
2021/01/21 09:27:38;;;;;;;5.43;1.47;;;7.60;99.90;;;;;;4942390;28;20194;-78
2021/01/21 09:30:11;;;;;;;6.17;1.27;;;7.60;99.90;;;;;;4962776;28;20177;-79
2021/01/21 09:32:38;;;;;;;5.47;1.30;;;7.50;99.90;;;;;;4955174;28;20656;-78
2021/01/21 09:35:11;;;;;;;5.03;1.50;;;7.60;99.90;;;;;;4971558;28;20558;-78
2021/01/21 09:37:37;;;;;;;7.07;1.33;;;7.60;99.90;;;;;;4947270;28;20200;-78
2021/01/21 09:40:04;;;;;;;3.30;1.40;;;7.60;99.90;;;;;;4962196;28;20661;-77
2021/01/21 09:42:29;;;;;;;5.13;1.37;;;7.60;99.90;;;;;;4957466;28;20180;-77
2021/01/21 09:44:55;;;;;;;5.90;1.30;;;7.60;99.90;;;;;;4942345;28;20219;-78
2021/01/21 09:47:21;;;;;;;11.30;1.93;;;7.60;99.90;;;;;;4967146;28;20228;-78
2021/01/21 09:49:46;;;;;;;7.13;1.57;;;7.50;99.90;;;;;;4957882;28;20184;-78
2021/01/21 09:52:12;;;;;;;6.30;1.47;;;7.60;99.90;;;;;;4944264;29;20178;-79
2021/01/21 09:54:38;;;;;;;5.30;1.33;;;7.70;99.90;;;;;;4973458;28;20180;-78
2021/01/21 09:57:04;;;;;;;6.27;1.10;;;7.80;99.90;;;;;;4938958;28;20240;-78
2021/01/21 09:59:30;;;;;;;8.17;1.93;;;7.80;99.90;;;;;;4951252;29;20181;-79
2021/01/21 10:01:55;;;;;;;4.70;1.30;;;7.90;99.90;;;;;;4955456;29;20182;-79
2021/01/21 10:04:21;;;;;;;4.17;1.47;;;7.90;99.90;;;;;;4958220;28;20212;-79
2021/01/21 10:06:46;;;;;;;6.07;1.37;;;7.90;99.90;;;;;;4958472;28;20217;-80
2021/01/21 10:09:12;;;;;;;8.00;1.60;;;7.90;99.90;;;;;;4957321;28;20247;-77
2021/01/21 10:11:39;;;;;;;5.53;1.40;;;8.00;99.90;;;;;;4953730;28;20201;-79
2021/01/21 10:14:05;;;;;;;6.50;1.57;;;7.80;99.90;;;;;;4943533;28;20739;-80
2021/01/21 10:16:30;;;;;;;7.80;1.37;;;7.90;99.90;;;;;;4938904;29;20229;-80
2021/01/21 10:18:58;;;;;;;7.70;1.77;;;7.90;99.90;;;;;;4945259;28;20184;-79
2021/01/21 10:21:24;;;;;;;6.73;1.43;;;7.90;99.90;;;;;;4957762;28;20566;-77
2021/01/21 10:23:50;;;;;;;11.53;1.47;;;8.00;99.90;;;;;;4956200;28;20201;-77
2021/01/21 10:26:16;;;;;;;7.20;1.40;;;8.00;99.90;;;;;;4953232;28;20171;-77
2021/01/21 10:28:42;;;;;;;4.20;1.00;;;8.10;99.90;;;;;;4938840;29;20183;-78
2021/01/21 10:31:07;;;;;;;6.70;1.40;;;8.10;99.90;;;;;;4949365;28;20643;-79
2021/01/21 10:33:33;;;;;;;6.80;1.93;;;8.10;99.90;;;;;;4944615;29;20187;-77
2021/01/21 10:35:58;;;;;;;6.50;1.47;;;8.10;99.90;;;;;;4955131;28;20271;-80
2021/01/21 10:38:24;;;;;;;4.57;1.53;;;8.30;99.90;;;;;;4957970;28;20204;-82
2021/01/21 10:40:50;;;;;;;5.70;1.40;;;8.40;99.90;;;;;;4957900;28;20192;-82
2021/01/21 10:43:16;;;;;;;3.80;1.30;;;8.30;99.90;;;;;;4957507;28;20269;-78
2021/01/21 10:45:42;;;;;;;10.03;1.70;;;8.40;99.90;;;;;;4953940;28;20178;-78
2021/01/21 10:48:09;;;;;;;10.67;1.50;;;8.40;99.90;;;;;;4937416;29;20579;-78
2021/01/21 10:50:34;;;;;;;7.07;1.20;;;8.50;99.90;;;;;;4940350;28;20242;-81
2021/01/21 10:53:00;;;;;;;5.87;1.47;;;8.50;99.90;;;;;;4932990;29;20602;-80
2021/01/21 10:55:25;;;;;;;6.60;1.27;;;8.50;99.90;;;;;;4971295;28;20181;-78
2021/01/21 10:57:51;;;;;;;4.70;1.30;;;8.60;99.90;;;;;;4956156;28;20197;-81
2021/01/21 11:00:17;;;;;;;6.50;1.13;;;8.60;99.90;;;;;;4968164;28;20184;-81
2021/01/21 11:02:43;;;;;;;5.23;1.20;;;8.60;99.90;;;;;;4956331;28;20267;-80
2021/01/21 11:05:09;;;;;;;4.47;1.43;;;8.60;99.90;;;;;;4956117;28;20262;-81
2021/01/21 11:07:34;;;;;;;5.20;1.30;;;8.70;99.90;;;;;;4951748;28;20216;-80
2021/01/21 11:10:00;;;;;;;5.50;1.10;;;8.80;99.90;;;;;;4951421;28;20181;-82
2021/01/21 11:12:25;;;;;;;9.07;1.47;;;8.80;99.90;;;;;;4956355;28;20195;-81
2021/01/21 11:14:53;;;;;;;7.40;1.30;;;8.70;99.90;;;;;;4968398;28;20597;-81
2021/01/21 11:17:20;;;;;;;6.20;1.20;;;8.70;99.90;;;;;;4954522;28;20578;-82
2021/01/21 11:19:46;;;;;;;7.63;1.37;;;8.70;99.90;;;;;;4954984;28;20187;-79
2021/01/21 11:22:11;;;;;;;2.57;1.10;;;8.80;99.90;;;;;;4986062;28;20199;-77
2021/01/21 11:24:37;;;;;;;2.07;1.10;;;8.80;99.90;;;;;;4987813;28;20257;-78
2021/01/21 11:27:02;;;;;;;4.97;1.00;;;8.80;99.90;;;;;;4958288;28;20200;-78
2021/01/21 11:29:28;;;;;;;4.87;1.00;;;8.70;99.90;;;;;;4962365;28;20176;-78
2021/01/21 11:31:53;;;;;;;4.73;1.00;;;8.70;99.90;;;;;;4956696;28;20196;-81
2021/01/21 11:34:19;;;;;;;4.20;1.47;;;8.80;99.90;;;;;;4957782;28;20181;-79
2021/01/21 11:36:45;;;;;;;4.07;1.00;;;8.80;99.90;;;;;;4988661;28;20229;-78
2021/01/21 11:39:11;;;;;;;6.03;1.43;;;8.80;99.90;;;;;;4954445;28;20237;-78
2021/01/21 11:41:37;;;;;;;4.57;1.00;;;8.70;99.90;;;;;;4990523;28;20184;-82
2021/01/21 11:44:02;;;;;;;5.70;1.13;;;8.70;99.90;;;;;;4938757;28;20552;-82
2021/01/21 11:46:28;;;;;;;4.50;0.90;;;8.60;99.90;;;;;;4943273;28;20679;-82
2021/01/21 11:48:53;;;;;;;6.63;1.00;;;8.60;99.90;;;;;;4991121;28;20196;-81
2021/01/21 11:51:19;;;;;;;3.93;1.10;;;8.50;99.90;;;;;;4959857;28;20184;-82
2021/01/21 11:53:45;;;;;;;5.30;1.30;;;8.60;99.90;;;;;;4960677;28;20189;-81
2021/01/21 11:56:11;;;;;;;5.70;1.20;;;8.50;99.90;;;;;;4959950;28;20181;-81
2021/01/21 11:58:37;;;;;;;4.10;0.90;;;8.60;99.90;;;;;;4960128;28;20263;-80
2021/01/21 12:01:02;;;;;;;3.20;0.90;;;8.60;99.90;;;;;;4960944;28;20221;-78
2021/01/21 12:03:28;;;;;;;4.63;1.20;;;8.70;99.90;;;;;;4993302;28;20201;-81
2021/01/21 12:05:53;;;;;;;3.63;1.03;;;8.70;99.90;;;;;;4992806;28;20608;-81
2021/01/21 12:08:19;;;;;;;4.87;1.10;;;8.80;99.90;;;;;;4995019;28;20300;-80
2021/01/21 12:10:45;;;;;;;1.90;0.73;;;8.70;99.90;;;;;;4977223;28;20189;-77
2021/01/21 12:13:10;;;;;;;4.10;1.30;;;8.60;99.90;;;;;;4991410;28;20217;-76
2021/01/21 12:15:36;;;;;;;3.23;0.90;;;8.50;99.90;;;;;;4959871;28;20177;-80
2021/01/21 12:18:01;;;;;;;2.07;0.80;;;8.50;99.90;;;;;;4959791;28;20201;-80
2021/01/21 12:20:27;;;;;;;3.87;1.40;;;8.50;99.90;;;;;;4960465;28;20624;-80
2021/01/21 12:22:52;;;;;;;4.83;1.10;;;8.50;99.90;;;;;;4960257;28;20633;-79
2021/01/21 12:25:18;;;;;;;4.17;0.80;;;8.60;99.90;;;;;;4960610;28;20287;-78
2021/01/21 12:27:43;;;;;;;4.53;1.00;;;8.60;99.90;;;;;;4958532;28;20219;-79
2021/01/21 12:30:10;;;;;;;2.33;1.00;;;8.50;99.90;;;;;;4958073;28;20169;-80
2021/01/21 12:32:35;;;;;;;3.13;1.00;;;8.50;99.90;;;;;;4965631;28;20606;-82
2021/01/21 12:35:01;;;;;;;3.73;0.80;;;8.60;99.90;;;;;;4963273;28;20187;-82
2021/01/21 12:37:39;;;;;;;5.47;1.03;;;8.60;99.90;;;;;;4964727;28;20211;-83
2021/01/21 12:40:06;;;;;;;4.93;0.80;;;8.60;99.90;;;;;;4980334;28;20252;-83
2021/01/21 12:42:31;;;;;;;4.33;1.07;;;8.70;99.90;;;;;;4964566;28;20275;-81
2021/01/21 12:44:57;;;;;;;3.60;1.00;;;8.60;99.90;;;;;;4980003;28;20235;-80
2021/01/21 12:47:22;;;;;;;5.50;1.23;;;8.60;99.90;;;;;;4962260;28;20200;-78
2021/01/21 12:49:48;;;;;;;6.33;1.00;;;8.70;99.90;;;;;;4979189;28;20176;-81
2021/01/21 12:52:14;;;;;;;3.43;1.10;;;8.70;99.90;;;;;;4945574;28;20195;-79
2021/01/21 12:54:39;;;;;;;2.37;1.00;;;8.70;99.90;;;;;;4959635;28;20177;-81
2021/01/21 12:57:05;;;;;;;4.13;1.20;;;8.80;99.90;;;;;;4959039;28;20763;-81